sensor_id;sensor_type;location;lat;lon;timestamp;P1;durP1;ratioP1;P2;durP2;ratioP2
19804;SDS011;10062;51.052;13.756;2022-08-21T00:00:43;59.20;;;34.80;;
19804;SDS011;10062;51.052;13.756;2022-08-21T00:03:16;60.10;;;36.70;;
19804;SDS011;10062;51.052;13.756;2022-08-21T00:05:48;63.97;;;37.33;;
19804;SDS011;10062;51.052;13.756;2022-08-21T00:08:21;56.87;;;33.17;;
19804;SDS011;10062;51.052;13.756;2022-08-21T00:10:53;56.27;;;33.70;;
19804;SDS011;10062;51.052;13.756;2022-08-21T00:13:25;61.90;;;34.93;;
19804;SDS011;10062;51.052;13.756;2022-08-21T00:15:57;66.53;;;34.97;;
19804;SDS011;10062;51.052;13.756;2022-08-21T00:18:30;57.37;;;34.20;;
19804;SDS011;10062;51.052;13.756;2022-08-21T00:21:02;58.97;;;35.40;;
19804;SDS011;10062;51.052;13.756;2022-08-21T00:23:34;60.47;;;35.40;;
19804;SDS011;10062;51.052;13.756;2022-08-21T00:26:06;60.27;;;35.50;;
19804;SDS011;10062;51.052;13.756;2022-08-21T00:28:37;63.60;;;35.67;;
19804;SDS011;10062;51.052;13.756;2022-08-21T00:31:09;62.77;;;35.63;;
19804;SDS011;10062;51.052;13.756;2022-08-21T00:33:42;64.30;;;37.07;;
19804;SDS011;10062;51.052;13.756;2022-08-21T00:36:14;62.60;;;35.60;;
19804;SDS011;10062;51.052;13.756;2022-08-21T00:38:46;60.00;;;34.93;;
19804;SDS011;10062;51.052;13.756;2022-08-21T00:41:18;68.80;;;35.57;;
19804;SDS011;10062;51.052;13.756;2022-08-21T00:43:49;61.33;;;36.43;;
19804;SDS011;10062;51.052;13.756;2022-08-21T00:46:22;57.90;;;35.20;;
19804;SDS011;10062;51.052;13.756;2022-08-21T00:48:55;70.43;;;38.20;;
19804;SDS011;10062;51.052;13.756;2022-08-21T00:51:29;67.67;;;38.43;;
19804;SDS011;10062;51.052;13.756;2022-08-21T00:54:06;71.93;;;39.30;;
19804;SDS011;10062;51.052;13.756;2022-08-21T00:56:39;73.83;;;38.73;;
19804;SDS011;10062;51.052;13.756;2022-08-21T00:59:11;70.87;;;41.10;;
19804;SDS011;10062;51.052;13.756;2022-08-21T01:01:43;78.53;;;41.43;;
19804;SDS011;10062;51.052;13.756;2022-08-21T01:04:16;73.83;;;39.73;;
19804;SDS011;10062;51.052;13.756;2022-08-21T01:06:48;68.33;;;39.53;;
19804;SDS011;10062;51.052;13.756;2022-08-21T01:09:21;74.80;;;39.10;;
19804;SDS011;10062;51.052;13.756;2022-08-21T01:11:53;73.67;;;41.03;;
19804;SDS011;10062;51.052;13.756;2022-08-21T01:14:25;80.20;;;41.80;;
19804;SDS011;10062;51.052;13.756;2022-08-21T01:16:59;77.20;;;43.70;;
19804;SDS011;10062;51.052;13.756;2022-08-21T01:19:34;75.27;;;42.23;;
19804;SDS011;10062;51.052;13.756;2022-08-21T01:22:07;78.17;;;43.07;;
19804;SDS011;10062;51.052;13.756;2022-08-21T01:24:39;73.53;;;40.90;;
19804;SDS011;10062;51.052;13.756;2022-08-21T01:27:11;76.00;;;40.70;;
19804;SDS011;10062;51.052;13.756;2022-08-21T01:29:44;54.50;;;30.40;;
19804;SDS011;10062;51.052;13.756;2022-08-21T01:32:22;56.03;;;30.40;;
19804;SDS011;10062;51.052;13.756;2022-08-21T01:34:54;46.33;;;27.70;;
19804;SDS011;10062;51.052;13.756;2022-08-21T01:37:27;48.50;;;27.33;;
19804;SDS011;10062;51.052;13.756;2022-08-21T01:39:59;42.90;;;25.37;;
19804;SDS011;10062;51.052;13.756;2022-08-21T01:42:31;40.30;;;24.23;;
19804;SDS011;10062;51.052;13.756;2022-08-21T01:45:04;38.73;;;22.30;;
19804;SDS011;10062;51.052;13.756;2022-08-21T01:47:36;33.20;;;20.30;;
19804;SDS011;10062;51.052;13.756;2022-08-21T01:50:11;35.53;;;21.47;;
19804;SDS011;10062;51.052;13.756;2022-08-21T01:52:46;29.13;;;19.63;;
19804;SDS011;10062;51.052;13.756;2022-08-21T01:55:19;32.40;;;19.37;;
19804;SDS011;10062;51.052;13.756;2022-08-21T01:57:51;31.90;;;18.87;;
19804;SDS011;10062;51.052;13.756;2022-08-21T02:00:23;29.07;;;18.70;;
19804;SDS011;10062;51.052;13.756;2022-08-21T02:02:55;26.23;;;17.40;;
19804;SDS011;10062;51.052;13.756;2022-08-21T02:05:26;23.70;;;16.73;;
19804;SDS011;10062;51.052;13.756;2022-08-21T02:07:59;23.83;;;16.43;;
19804;SDS011;10062;51.052;13.756;2022-08-21T02:10:31;26.80;;;17.10;;
19804;SDS011;10062;51.052;13.756;2022-08-21T02:13:03;26.50;;;17.33;;
19804;SDS011;10062;51.052;13.756;2022-08-21T02:15:35;24.50;;;15.90;;
19804;SDS011;10062;51.052;13.756;2022-08-21T02:18:07;23.30;;;15.50;;
19804;SDS011;10062;51.052;13.756;2022-08-21T02:20:40;22.50;;;15.60;;
19804;SDS011;10062;51.052;13.756;2022-08-21T02:23:15;26.93;;;17.40;;
19804;SDS011;10062;51.052;13.756;2022-08-21T02:25:46;28.57;;;17.00;;
19804;SDS011;10062;51.052;13.756;2022-08-21T02:28:18;28.63;;;16.63;;
19804;SDS011;10062;51.052;13.756;2022-08-21T02:30:50;26.43;;;17.30;;
19804;SDS011;10062;51.052;13.756;2022-08-21T02:33:22;23.33;;;16.00;;
19804;SDS011;10062;51.052;13.756;2022-08-21T02:35:54;22.03;;;15.00;;
19804;SDS011;10062;51.052;13.756;2022-08-21T02:38:29;21.57;;;15.57;;
19804;SDS011;10062;51.052;13.756;2022-08-21T02:41:03;24.33;;;15.77;;
19804;SDS011;10062;51.052;13.756;2022-08-21T02:43:37;25.03;;;16.03;;
19804;SDS011;10062;51.052;13.756;2022-08-21T02:46:09;22.07;;;14.37;;
19804;SDS011;10062;51.052;13.756;2022-08-21T02:48:42;22.17;;;15.13;;
19804;SDS011;10062;51.052;13.756;2022-08-21T02:51:15;25.03;;;15.47;;
19804;SDS011;10062;51.052;13.756;2022-08-21T02:53:51;23.13;;;14.53;;
19804;SDS011;10062;51.052;13.756;2022-08-21T02:56:22;21.60;;;14.43;;
19804;SDS011;10062;51.052;13.756;2022-08-21T02:58:54;20.77;;;15.17;;
19804;SDS011;10062;51.052;13.756;2022-08-21T03:01:26;25.87;;;15.23;;
19804;SDS011;10062;51.052;13.756;2022-08-21T03:03:57;22.10;;;15.57;;
19804;SDS011;10062;51.052;13.756;2022-08-21T03:06:29;22.10;;;15.57;;
19804;SDS011;10062;51.052;13.756;2022-08-21T03:09:02;21.67;;;15.10;;
19804;SDS011;10062;51.052;13.756;2022-08-21T03:11:34;20.03;;;15.40;;
19804;SDS011;10062;51.052;13.756;2022-08-21T03:14:06;21.43;;;13.50;;
19804;SDS011;10062;51.052;13.756;2022-08-21T03:16:37;19.07;;;14.07;;
19804;SDS011;10062;51.052;13.756;2022-08-21T03:19:09;23.33;;;14.20;;
19804;SDS011;10062;51.052;13.756;2022-08-21T03:21:41;20.70;;;13.70;;
19804;SDS011;10062;51.052;13.756;2022-08-21T03:24:14;21.13;;;14.70;;
19804;SDS011;10062;51.052;13.756;2022-08-21T03:26:45;22.17;;;15.13;;
19804;SDS011;10062;51.052;13.756;2022-08-21T03:29:17;22.53;;;14.13;;
19804;SDS011;10062;51.052;13.756;2022-08-21T03:31:49;20.77;;;14.07;;
19804;SDS011;10062;51.052;13.756;2022-08-21T03:34:23;22.13;;;15.73;;
19804;SDS011;10062;51.052;13.756;2022-08-21T03:36:55;24.60;;;15.70;;
19804;SDS011;10062;51.052;13.756;2022-08-21T03:39:28;22.23;;;14.53;;
19804;SDS011;10062;51.052;13.756;2022-08-21T03:41:59;25.57;;;16.60;;
19804;SDS011;10062;51.052;13.756;2022-08-21T03:44:31;28.53;;;17.20;;
19804;SDS011;10062;51.052;13.756;2022-08-21T03:47:03;19.47;;;13.00;;
19804;SDS011;10062;51.052;13.756;2022-08-21T03:49:35;30.50;;;17.17;;
19804;SDS011;10062;51.052;13.756;2022-08-21T03:52:07;26.03;;;17.90;;
19804;SDS011;10062;51.052;13.756;2022-08-21T03:54:41;29.27;;;19.97;;
19804;SDS011;10062;51.052;13.756;2022-08-21T03:57:12;35.70;;;24.00;;
19804;SDS011;10062;51.052;13.756;2022-08-21T03:59:44;25.33;;;18.03;;
19804;SDS011;10062;51.052;13.756;2022-08-21T04:02:17;26.60;;;18.60;;
19804;SDS011;10062;51.052;13.756;2022-08-21T04:04:51;26.83;;;16.63;;
19804;SDS011;10062;51.052;13.756;2022-08-21T04:07:23;26.13;;;17.70;;
19804;SDS011;10062;51.052;13.756;2022-08-21T04:09:56;30.73;;;19.50;;
19804;SDS011;10062;51.052;13.756;2022-08-21T04:12:28;25.37;;;17.37;;
19804;SDS011;10062;51.052;13.756;2022-08-21T04:15:00;23.13;;;15.00;;
19804;SDS011;10062;51.052;13.756;2022-08-21T04:17:32;24.50;;;15.13;;
19804;SDS011;10062;51.052;13.756;2022-08-21T04:20:05;29.20;;;18.27;;
19804;SDS011;10062;51.052;13.756;2022-08-21T04:22:37;26.57;;;16.93;;
19804;SDS011;10062;51.052;13.756;2022-08-21T04:25:10;22.53;;;13.53;;
19804;SDS011;10062;51.052;13.756;2022-08-21T04:27:42;28.17;;;17.03;;
19804;SDS011;10062;51.052;13.756;2022-08-21T04:30:14;26.70;;;15.90;;
19804;SDS011;10062;51.052;13.756;2022-08-21T04:32:47;19.10;;;12.70;;
19804;SDS011;10062;51.052;13.756;2022-08-21T04:35:21;19.87;;;12.07;;
19804;SDS011;10062;51.052;13.756;2022-08-21T04:37:54;22.07;;;13.13;;
19804;SDS011;10062;51.052;13.756;2022-08-21T04:40:28;18.63;;;12.07;;
19804;SDS011;10062;51.052;13.756;2022-08-21T04:43:01;21.93;;;13.43;;
19804;SDS011;10062;51.052;13.756;2022-08-21T04:45:35;18.30;;;11.80;;
19804;SDS011;10062;51.052;13.756;2022-08-21T04:48:09;19.93;;;11.73;;
19804;SDS011;10062;51.052;13.756;2022-08-21T04:50:43;20.50;;;12.40;;
19804;SDS011;10062;51.052;13.756;2022-08-21T04:53:19;19.10;;;11.93;;
19804;SDS011;10062;51.052;13.756;2022-08-21T04:55:56;15.80;;;11.33;;
19804;SDS011;10062;51.052;13.756;2022-08-21T04:58:29;18.77;;;12.23;;
19804;SDS011;10062;51.052;13.756;2022-08-21T05:01:03;15.13;;;10.63;;
19804;SDS011;10062;51.052;13.756;2022-08-21T05:03:36;16.33;;;11.87;;
19804;SDS011;10062;51.052;13.756;2022-08-21T05:06:10;17.10;;;11.53;;
19804;SDS011;10062;51.052;13.756;2022-08-21T05:08:44;21.33;;;12.40;;
19804;SDS011;10062;51.052;13.756;2022-08-21T05:11:19;16.43;;;11.30;;
19804;SDS011;10062;51.052;13.756;2022-08-21T05:13:52;19.73;;;12.57;;
19804;SDS011;10062;51.052;13.756;2022-08-21T05:16:23;17.97;;;11.27;;
19804;SDS011;10062;51.052;13.756;2022-08-21T05:18:56;15.63;;;10.57;;
19804;SDS011;10062;51.052;13.756;2022-08-21T05:21:28;21.70;;;13.20;;
19804;SDS011;10062;51.052;13.756;2022-08-21T05:24:00;21.80;;;11.07;;
19804;SDS011;10062;51.052;13.756;2022-08-21T05:26:33;18.33;;;12.47;;
19804;SDS011;10062;51.052;13.756;2022-08-21T05:29:06;19.70;;;11.20;;
19804;SDS011;10062;51.052;13.756;2022-08-21T05:31:38;21.27;;;15.43;;
19804;SDS011;10062;51.052;13.756;2022-08-21T05:34:09;19.60;;;14.00;;
19804;SDS011;10062;51.052;13.756;2022-08-21T05:36:41;18.30;;;13.87;;
19804;SDS011;10062;51.052;13.756;2022-08-21T05:39:13;21.10;;;14.10;;
19804;SDS011;10062;51.052;13.756;2022-08-21T05:41:46;21.17;;;13.87;;
19804;SDS011;10062;51.052;13.756;2022-08-21T05:44:17;18.83;;;13.77;;
19804;SDS011;10062;51.052;13.756;2022-08-21T05:46:49;20.70;;;14.20;;
19804;SDS011;10062;51.052;13.756;2022-08-21T05:49:21;22.07;;;15.37;;
19804;SDS011;10062;51.052;13.756;2022-08-21T05:51:52;21.40;;;14.70;;
19804;SDS011;10062;51.052;13.756;2022-08-21T05:54:24;28.97;;;17.97;;
19804;SDS011;10062;51.052;13.756;2022-08-21T05:56:57;24.87;;;18.90;;
19804;SDS011;10062;51.052;13.756;2022-08-21T05:59:29;24.30;;;17.13;;
19804;SDS011;10062;51.052;13.756;2022-08-21T06:02:01;26.87;;;17.90;;
19804;SDS011;10062;51.052;13.756;2022-08-21T06:04:34;32.93;;;21.87;;
19804;SDS011;10062;51.052;13.756;2022-08-21T06:07:08;30.77;;;20.83;;
19804;SDS011;10062;51.052;13.756;2022-08-21T06:09:39;34.37;;;24.43;;
19804;SDS011;10062;51.052;13.756;2022-08-21T06:12:13;34.97;;;24.23;;
19804;SDS011;10062;51.052;13.756;2022-08-21T06:14:45;37.20;;;24.63;;
19804;SDS011;10062;51.052;13.756;2022-08-21T06:17:16;37.27;;;25.73;;
19804;SDS011;10062;51.052;13.756;2022-08-21T06:19:50;38.23;;;25.37;;
19804;SDS011;10062;51.052;13.756;2022-08-21T06:22:22;36.83;;;26.40;;
19804;SDS011;10062;51.052;13.756;2022-08-21T06:24:54;40.27;;;27.27;;
19804;SDS011;10062;51.052;13.756;2022-08-21T06:27:27;40.23;;;26.63;;
19804;SDS011;10062;51.052;13.756;2022-08-21T06:29:59;41.63;;;26.10;;
19804;SDS011;10062;51.052;13.756;2022-08-21T06:32:30;39.57;;;27.30;;
19804;SDS011;10062;51.052;13.756;2022-08-21T06:35:03;38.53;;;24.70;;
19804;SDS011;10062;51.052;13.756;2022-08-21T06:37:36;34.53;;;24.50;;
19804;SDS011;10062;51.052;13.756;2022-08-21T06:40:08;34.03;;;23.97;;
19804;SDS011;10062;51.052;13.756;2022-08-21T06:42:41;38.80;;;24.87;;
19804;SDS011;10062;51.052;13.756;2022-08-21T06:45:13;41.33;;;25.80;;
19804;SDS011;10062;51.052;13.756;2022-08-21T06:47:45;35.63;;;24.53;;
19804;SDS011;10062;51.052;13.756;2022-08-21T06:50:16;30.73;;;22.60;;
19804;SDS011;10062;51.052;13.756;2022-08-21T06:52:49;30.27;;;23.13;;
19804;SDS011;10062;51.052;13.756;2022-08-21T06:55:28;33.33;;;24.40;;
19804;SDS011;10062;51.052;13.756;2022-08-21T06:58:02;28.63;;;20.63;;
19804;SDS011;10062;51.052;13.756;2022-08-21T07:00:34;25.40;;;20.07;;
19804;SDS011;10062;51.052;13.756;2022-08-21T07:03:15;29.10;;;20.80;;
19804;SDS011;10062;51.052;13.756;2022-08-21T07:05:48;23.63;;;19.60;;
19804;SDS011;10062;51.052;13.756;2022-08-21T07:08:20;29.53;;;21.63;;
19804;SDS011;10062;51.052;13.756;2022-08-21T07:10:52;24.93;;;15.53;;
19804;SDS011;10062;51.052;13.756;2022-08-21T07:13:27;25.93;;;18.97;;
19804;SDS011;10062;51.052;13.756;2022-08-21T07:15:59;24.40;;;18.87;;
19804;SDS011;10062;51.052;13.756;2022-08-21T07:18:30;24.17;;;15.83;;
19804;SDS011;10062;51.052;13.756;2022-08-21T07:21:02;24.50;;;19.73;;
19804;SDS011;10062;51.052;13.756;2022-08-21T07:23:37;25.87;;;20.10;;
19804;SDS011;10062;51.052;13.756;2022-08-21T07:26:10;23.50;;;17.73;;
19804;SDS011;10062;51.052;13.756;2022-08-21T07:28:44;24.70;;;17.97;;
19804;SDS011;10062;51.052;13.756;2022-08-21T07:31:17;25.30;;;16.17;;
19804;SDS011;10062;51.052;13.756;2022-08-21T07:33:53;20.33;;;16.57;;
19804;SDS011;10062;51.052;13.756;2022-08-21T07:36:25;26.43;;;18.70;;
19804;SDS011;10062;51.052;13.756;2022-08-21T07:38:57;22.83;;;17.50;;
19804;SDS011;10062;51.052;13.756;2022-08-21T07:41:29;18.63;;;16.00;;
19804;SDS011;10062;51.052;13.756;2022-08-21T07:44:03;21.77;;;16.50;;
19804;SDS011;10062;51.052;13.756;2022-08-21T07:46:35;21.20;;;16.13;;
19804;SDS011;10062;51.052;13.756;2022-08-21T07:49:06;19.87;;;16.80;;
19804;SDS011;10062;51.052;13.756;2022-08-21T07:51:38;24.17;;;16.77;;
19804;SDS011;10062;51.052;13.756;2022-08-21T07:54:10;21.00;;;16.50;;
19804;SDS011;10062;51.052;13.756;2022-08-21T07:56:41;21.07;;;17.40;;
19804;SDS011;10062;51.052;13.756;2022-08-21T07:59:14;21.90;;;17.40;;
19804;SDS011;10062;51.052;13.756;2022-08-21T08:01:46;21.00;;;16.90;;
19804;SDS011;10062;51.052;13.756;2022-08-21T08:04:18;19.27;;;16.00;;
19804;SDS011;10062;51.052;13.756;2022-08-21T08:06:49;18.67;;;15.20;;
19804;SDS011;10062;51.052;13.756;2022-08-21T08:09:21;23.20;;;16.40;;
19804;SDS011;10062;51.052;13.756;2022-08-21T08:11:53;21.97;;;16.97;;
19804;SDS011;10062;51.052;13.756;2022-08-21T08:14:26;21.70;;;16.83;;
19804;SDS011;10062;51.052;13.756;2022-08-21T08:16:57;19.57;;;16.53;;
19804;SDS011;10062;51.052;13.756;2022-08-21T08:19:29;22.50;;;14.60;;
19804;SDS011;10062;51.052;13.756;2022-08-21T08:22:01;21.07;;;15.50;;
19804;SDS011;10062;51.052;13.756;2022-08-21T08:24:42;19.50;;;15.30;;
19804;SDS011;10062;51.052;13.756;2022-08-21T08:27:14;18.63;;;15.93;;
19804;SDS011;10062;51.052;13.756;2022-08-21T08:29:48;20.00;;;14.93;;
19804;SDS011;10062;51.052;13.756;2022-08-21T08:32:20;16.57;;;13.87;;
19804;SDS011;10062;51.052;13.756;2022-08-21T08:34:52;20.00;;;14.13;;
19804;SDS011;10062;51.052;13.756;2022-08-21T08:37:24;28.27;;;15.07;;
19804;SDS011;10062;51.052;13.756;2022-08-21T08:39:56;18.60;;;15.60;;
19804;SDS011;10062;51.052;13.756;2022-08-21T08:42:29;19.60;;;13.77;;
19804;SDS011;10062;51.052;13.756;2022-08-21T08:45:05;18.30;;;13.63;;
19804;SDS011;10062;51.052;13.756;2022-08-21T08:47:39;21.27;;;14.43;;
19804;SDS011;10062;51.052;13.756;2022-08-21T08:50:17;17.77;;;12.80;;
19804;SDS011;10062;51.052;13.756;2022-08-21T08:52:52;18.60;;;13.40;;
19804;SDS011;10062;51.052;13.756;2022-08-21T08:55:30;15.20;;;12.40;;
19804;SDS011;10062;51.052;13.756;2022-08-21T08:58:05;15.17;;;13.03;;
19804;SDS011;10062;51.052;13.756;2022-08-21T09:00:39;19.40;;;12.10;;
19804;SDS011;10062;51.052;13.756;2022-08-21T09:03:11;14.60;;;11.77;;
19804;SDS011;10062;51.052;13.756;2022-08-21T09:05:44;17.43;;;11.60;;
19804;SDS011;10062;51.052;13.756;2022-08-21T09:08:23;13.57;;;10.97;;
19804;SDS011;10062;51.052;13.756;2022-08-21T09:11:04;13.70;;;11.17;;
19804;SDS011;10062;51.052;13.756;2022-08-21T09:13:43;15.60;;;10.90;;
19804;SDS011;10062;51.052;13.756;2022-08-21T09:16:28;13.90;;;10.67;;
19804;SDS011;10062;51.052;13.756;2022-08-21T09:19:12;11.70;;;9.93;;
19804;SDS011;10062;51.052;13.756;2022-08-21T09:21:58;14.33;;;9.43;;
19804;SDS011;10062;51.052;13.756;2022-08-21T09:24:37;13.83;;;9.77;;
19804;SDS011;10062;51.052;13.756;2022-08-21T09:27:15;16.20;;;9.47;;
19804;SDS011;10062;51.052;13.756;2022-08-21T09:29:50;13.27;;;9.33;;
19804;SDS011;10062;51.052;13.756;2022-08-21T09:32:26;12.33;;;8.43;;
19804;SDS011;10062;51.052;13.756;2022-08-21T09:35:00;13.27;;;8.13;;
19804;SDS011;10062;51.052;13.756;2022-08-21T09:37:44;14.10;;;7.90;;
19804;SDS011;10062;51.052;13.756;2022-08-21T09:40:23;12.63;;;7.60;;
19804;SDS011;10062;51.052;13.756;2022-08-21T09:43:02;11.33;;;8.10;;
19804;SDS011;10062;51.052;13.756;2022-08-21T09:45:36;13.27;;;6.27;;
19804;SDS011;10062;51.052;13.756;2022-08-21T09:48:10;14.03;;;7.97;;
19804;SDS011;10062;51.052;13.756;2022-08-21T09:50:43;14.83;;;6.67;;
19804;SDS011;10062;51.052;13.756;2022-08-21T09:53:16;9.53;;;6.03;;
19804;SDS011;10062;51.052;13.756;2022-08-21T09:55:51;13.33;;;7.00;;
19804;SDS011;10062;51.052;13.756;2022-08-21T09:58:42;10.83;;;6.00;;
19804;SDS011;10062;51.052;13.756;2022-08-21T10:01:16;8.13;;;5.00;;
19804;SDS011;10062;51.052;13.756;2022-08-21T10:04:01;14.20;;;4.17;;
19804;SDS011;10062;51.052;13.756;2022-08-21T10:06:33;8.00;;;4.03;;
19804;SDS011;10062;51.052;13.756;2022-08-21T10:09:06;10.80;;;3.70;;
19804;SDS011;10062;51.052;13.756;2022-08-21T10:11:40;6.20;;;3.80;;
19804;SDS011;10062;51.052;13.756;2022-08-21T10:14:23;8.07;;;3.87;;
19804;SDS011;10062;51.052;13.756;2022-08-21T10:17:14;8.00;;;4.47;;
19804;SDS011;10062;51.052;13.756;2022-08-21T10:19:54;6.63;;;3.60;;
19804;SDS011;10062;51.052;13.756;2022-08-21T10:22:33;8.03;;;3.83;;
19804;SDS011;10062;51.052;13.756;2022-08-21T10:25:14;8.77;;;4.17;;
19804;SDS011;10062;51.052;13.756;2022-08-21T10:27:53;10.60;;;3.53;;
19804;SDS011;10062;51.052;13.756;2022-08-21T10:30:35;7.77;;;2.90;;
19804;SDS011;10062;51.052;13.756;2022-08-21T10:33:16;7.63;;;3.30;;
19804;SDS011;10062;51.052;13.756;2022-08-21T10:36:01;6.73;;;3.37;;
19804;SDS011;10062;51.052;13.756;2022-08-21T10:38:43;9.57;;;3.27;;
19804;SDS011;10062;51.052;13.756;2022-08-21T10:41:28;9.20;;;3.73;;
19804;SDS011;10062;51.052;13.756;2022-08-21T10:44:17;11.47;;;3.47;;
19804;SDS011;10062;51.052;13.756;2022-08-21T10:46:58;7.23;;;3.10;;
19804;SDS011;10062;51.052;13.756;2022-08-21T10:49:36;11.10;;;4.37;;
19804;SDS011;10062;51.052;13.756;2022-08-21T10:52:21;11.47;;;3.67;;
19804;SDS011;10062;51.052;13.756;2022-08-21T10:55:14;9.70;;;3.80;;
19804;SDS011;10062;51.052;13.756;2022-08-21T10:57:49;8.53;;;2.53;;
19804;SDS011;10062;51.052;13.756;2022-08-21T11:00:28;6.67;;;3.00;;
19804;SDS011;10062;51.052;13.756;2022-08-21T11:03:06;5.90;;;2.83;;
19804;SDS011;10062;51.052;13.756;2022-08-21T11:05:43;7.07;;;3.13;;
19804;SDS011;10062;51.052;13.756;2022-08-21T11:08:23;7.03;;;2.77;;
19804;SDS011;10062;51.052;13.756;2022-08-21T11:11:01;10.23;;;3.87;;
19804;SDS011;10062;51.052;13.756;2022-08-21T11:13:38;5.10;;;2.80;;
19804;SDS011;10062;51.052;13.756;2022-08-21T11:16:15;6.67;;;3.13;;
19804;SDS011;10062;51.052;13.756;2022-08-21T11:18:53;5.77;;;2.67;;
19804;SDS011;10062;51.052;13.756;2022-08-21T11:21:33;7.23;;;3.20;;
19804;SDS011;10062;51.052;13.756;2022-08-21T11:24:17;8.97;;;2.97;;
19804;SDS011;10062;51.052;13.756;2022-08-21T11:26:59;11.82;;;2.63;;
19804;SDS011;10062;51.052;13.756;2022-08-21T11:29:36;7.82;;;2.60;;
19804;SDS011;10062;51.052;13.756;2022-08-21T11:32:21;5.45;;;2.47;;
19804;SDS011;10062;51.052;13.756;2022-08-21T11:35:19;6.95;;;2.85;;
19804;SDS011;10062;51.052;13.756;2022-08-21T11:37:59;8.60;;;3.42;;
19804;SDS011;10062;51.052;13.756;2022-08-21T11:40:46;8.57;;;2.88;;
19804;SDS011;10062;51.052;13.756;2022-08-21T11:43:34;16.92;;;3.40;;
19804;SDS011;10062;51.052;13.756;2022-08-21T11:46:11;6.65;;;2.70;;
19804;SDS011;10062;51.052;13.756;2022-08-21T11:48:59;13.00;;;2.90;;
19804;SDS011;10062;51.052;13.756;2022-08-21T11:51:38;7.45;;;2.63;;
19804;SDS011;10062;51.052;13.756;2022-08-21T11:54:19;6.18;;;2.30;;
19804;SDS011;10062;51.052;13.756;2022-08-21T11:56:59;7.07;;;2.60;;
19804;SDS011;10062;51.052;13.756;2022-08-21T11:59:36;6.40;;;2.05;;
19804;SDS011;10062;51.052;13.756;2022-08-21T12:02:12;5.22;;;1.98;;
19804;SDS011;10062;51.052;13.756;2022-08-21T12:04:53;9.25;;;2.08;;
19804;SDS011;10062;51.052;13.756;2022-08-21T12:07:29;6.30;;;1.92;;
19804;SDS011;10062;51.052;13.756;2022-08-21T12:10:04;7.13;;;2.05;;
19804;SDS011;10062;51.052;13.756;2022-08-21T12:12:39;7.18;;;2.00;;
19804;SDS011;10062;51.052;13.756;2022-08-21T12:15:17;5.22;;;2.10;;
19804;SDS011;10062;51.052;13.756;2022-08-21T12:17:57;6.85;;;2.10;;
19804;SDS011;10062;51.052;13.756;2022-08-21T12:20:39;3.60;;;1.40;;
19804;SDS011;10062;51.052;13.756;2022-08-21T12:23:25;5.25;;;1.85;;
19804;SDS011;10062;51.052;13.756;2022-08-21T12:26:00;10.05;;;2.13;;
19804;SDS011;10062;51.052;13.756;2022-08-21T12:28:35;4.93;;;1.45;;
19804;SDS011;10062;51.052;13.756;2022-08-21T12:31:16;4.10;;;1.60;;
19804;SDS011;10062;51.052;13.756;2022-08-21T12:33:51;7.32;;;2.08;;
19804;SDS011;10062;51.052;13.756;2022-08-21T12:36:30;4.97;;;1.60;;
19804;SDS011;10062;51.052;13.756;2022-08-21T12:39:12;7.57;;;1.90;;
19804;SDS011;10062;51.052;13.756;2022-08-21T12:41:49;8.88;;;2.03;;
19804;SDS011;10062;51.052;13.756;2022-08-21T12:44:26;6.72;;;2.08;;
19804;SDS011;10062;51.052;13.756;2022-08-21T12:47:04;8.13;;;1.80;;
19804;SDS011;10062;51.052;13.756;2022-08-21T12:52:29;7.38;;;1.85;;
19804;SDS011;10062;51.052;13.756;2022-08-21T12:55:05;6.68;;;1.73;;
19804;SDS011;10062;51.052;13.756;2022-08-21T12:57:39;6.93;;;1.80;;
19804;SDS011;10062;51.052;13.756;2022-08-21T13:00:13;4.60;;;1.73;;
19804;SDS011;10062;51.052;13.756;2022-08-21T13:02:51;6.95;;;2.10;;
19804;SDS011;10062;51.052;13.756;2022-08-21T13:05:29;9.52;;;1.98;;
19804;SDS011;10062;51.052;13.756;2022-08-21T13:08:03;4.95;;;1.80;;
19804;SDS011;10062;51.052;13.756;2022-08-21T13:10:36;8.48;;;2.00;;
19804;SDS011;10062;51.052;13.756;2022-08-21T13:13:11;5.03;;;2.00;;
19804;SDS011;10062;51.052;13.756;2022-08-21T13:15:57;5.38;;;2.05;;
19804;SDS011;10062;51.052;13.756;2022-08-21T13:18:32;6.72;;;2.75;;
19804;SDS011;10062;51.052;13.756;2022-08-21T13:21:07;6.90;;;2.60;;
19804;SDS011;10062;51.052;13.756;2022-08-21T13:23:42;5.93;;;2.10;;
19804;SDS011;10062;51.052;13.756;2022-08-21T13:26:14;5.85;;;2.05;;
19804;SDS011;10062;51.052;13.756;2022-08-21T13:28:48;10.45;;;3.00;;
19804;SDS011;10062;51.052;13.756;2022-08-21T13:31:22;9.13;;;2.67;;
19804;SDS011;10062;51.052;13.756;2022-08-21T13:33:59;7.93;;;2.40;;
19804;SDS011;10062;51.052;13.756;2022-08-21T13:36:31;10.95;;;2.40;;
19804;SDS011;10062;51.052;13.756;2022-08-21T13:39:07;6.50;;;2.95;;
19804;SDS011;10062;51.052;13.756;2022-08-21T13:41:42;7.03;;;2.10;;
19804;SDS011;10062;51.052;13.756;2022-08-21T13:44:16;18.52;;;2.67;;
19804;SDS011;10062;51.052;13.756;2022-08-21T13:46:51;8.23;;;1.90;;
19804;SDS011;10062;51.052;13.756;2022-08-21T13:49:25;5.25;;;2.10;;
19804;SDS011;10062;51.052;13.756;2022-08-21T13:52:01;6.38;;;1.70;;
19804;SDS011;10062;51.052;13.756;2022-08-21T13:54:34;7.18;;;1.98;;
19804;SDS011;10062;51.052;13.756;2022-08-21T13:57:15;4.28;;;1.85;;
19804;SDS011;10062;51.052;13.756;2022-08-21T13:59:48;6.63;;;1.85;;
19804;SDS011;10062;51.052;13.756;2022-08-21T14:02:22;6.32;;;1.73;;
19804;SDS011;10062;51.052;13.756;2022-08-21T14:04:56;9.68;;;1.92;;
19804;SDS011;10062;51.052;13.756;2022-08-21T14:07:30;6.32;;;2.30;;
19804;SDS011;10062;51.052;13.756;2022-08-21T14:10:04;4.75;;;1.55;;
19804;SDS011;10062;51.052;13.756;2022-08-21T14:12:40;3.78;;;1.48;;
19804;SDS011;10062;51.052;13.756;2022-08-21T14:15:14;5.68;;;1.77;;
19804;SDS011;10062;51.052;13.756;2022-08-21T14:17:51;5.35;;;1.80;;
19804;SDS011;10062;51.052;13.756;2022-08-21T14:20:27;4.72;;;2.13;;
19804;SDS011;10062;51.052;13.756;2022-08-21T14:23:01;5.80;;;1.90;;
19804;SDS011;10062;51.052;13.756;2022-08-21T14:25:37;6.18;;;2.53;;
19804;SDS011;10062;51.052;13.756;2022-08-21T14:28:15;8.38;;;2.22;;
19804;SDS011;10062;51.052;13.756;2022-08-21T14:30:51;7.78;;;1.95;;
19804;SDS011;10062;51.052;13.756;2022-08-21T14:33:26;5.50;;;1.70;;
19804;SDS011;10062;51.052;13.756;2022-08-21T14:35:59;5.78;;;2.15;;
19804;SDS011;10062;51.052;13.756;2022-08-21T14:38:31;3.97;;;1.42;;
19804;SDS011;10062;51.052;13.756;2022-08-21T14:41:09;9.35;;;1.98;;
19804;SDS011;10062;51.052;13.756;2022-08-21T14:43:46;10.55;;;2.30;;
19804;SDS011;10062;51.052;13.756;2022-08-21T14:46:20;5.00;;;2.00;;
19804;SDS011;10062;51.052;13.756;2022-08-21T14:48:55;5.00;;;1.50;;
19804;SDS011;10062;51.052;13.756;2022-08-21T14:51:27;6.68;;;1.90;;
19804;SDS011;10062;51.052;13.756;2022-08-21T14:53:59;7.85;;;1.88;;
19804;SDS011;10062;51.052;13.756;2022-08-21T14:56:31;3.42;;;1.65;;
19804;SDS011;10062;51.052;13.756;2022-08-21T14:59:04;4.55;;;1.83;;
19804;SDS011;10062;51.052;13.756;2022-08-21T15:01:38;6.40;;;1.70;;